Alpine Light — V7UJ6 — position and weather

sailwx.info

Track history (hours):
 
Tides and Currents Weather Stations Pressure Air Temp Water Temp Dewpoint Dewpoint Depression Visibility Wind Speed Wind Dir Waves Ship Positions

Alpine Light

Last reported at 2015-Jun-28 19:09 UTC. Time now 2015-Jul-07 00:15 UTC.
Position N 01°54' E 102°23'.
Warning: this ship's position is 8 days out of date.

Length 183 m; draft 8.6 m.

Type: Tanker. MMSI: 538003962.

Date/timePositionNaut miles runAvg speedWind from/ knotsBaromVisibWave heightAir tempDewpointWater temp
2015-Jun-28 19:09N 01°54' E 102°23'914.4
2015-Jun-28 18:33N 01°50' E 102°31'7614.0
2015-Jun-28 13:09N 01°12' E 103°36'1211.7
2015-Jun-28 12:09N 01°10' E 103°47'814.0
2015-Jun-28 11:33N 01°14' E 103°55'1211.9
2015-Jun-28 10:34N 01°18' E 104°06'7 0.2
2015-Jun-26 21:18N 01°23' E 104°01'5 6.3
2015-Jun-26 20:31N 01°20' E 104°05'  
2015-Jun-24 14:19N 01°15' E 104°02'811.0
2015-Jun-24 13:33N 01°13' E 103°54'6 5.6
2015-Jun-24 12:33N 01°13' E 103°49'1 0.9
2015-Jun-24 11:32N 01°14' E 103°48'0 0.0
2015-Jun-24 10:14N 01°14' E 103°48'0 0.0
2015-Jun-24 09:32N 01°14' E 103°48'0 0.0
2015-Jun-24 08:23N 01°14' E 103°48'0 0.0
2015-Jun-24 03:20N 01°14' E 103°48'0 0.0
2015-Jun-24 02:20N 01°14' E 103°48'0 0.0
2015-Jun-24 01:29N 01°14' E 103°48'0 0.0
2015-Jun-24 00:26N 01°14' E 103°48'0 0.0
2015-Jun-23 23:26N 01°14' E 103°48'0 0.0
2015-Jun-23 21:20N 01°14' E 103°48'2 2.7
2015-Jun-23 20:33N 01°15' E 103°47'2 0.0
2015-Jun-22 08:22N 01°14' E 103°45'3 3.5
2015-Jun-22 07:33N 01°14' E 103°48'1 0.5
2015-Jun-22 06:29N 01°14' E 103°48'0 0.0
2015-Jun-22 05:29N 01°14' E 103°48'0 0.0
2015-Jun-22 03:26N 01°14' E 103°48'0 0.0
2015-Jun-22 02:29N 01°14' E 103°48'0 0.0
2015-Jun-21 23:17N 01°14' E 103°48'0 0.0
2015-Jun-21 22:20N 01°14' E 103°48'0 0.0
2015-Jun-21 21:23N 01°14' E 103°48'0 0.1
2015-Jun-21 20:20N 01°14' E 103°48'0 0.2
2015-Jun-21 19:14N 01°14' E 103°48'0 0.1
2015-Jun-21 18:29N 01°14' E 103°48'0 0.0
2015-Jun-21 17:29N 01°14' E 103°48'0 0.0
2015-Jun-21 16:26N 01°14' E 103°48'0 0.0
2015-Jun-21 15:23N 01°14' E 103°48'0 0.1
2015-Jun-21 14:11N 01°14' E 103°48'0 0.0
2015-Jun-21 13:29N 01°14' E 103°48'0 0.1
2015-Jun-21 12:32N 01°14' E 103°48'0 0.0
2015-Jun-21 11:32N 01°14' E 103°48'0 0.0
2015-Jun-21 10:29N 01°14' E 103°48'0 0.1
2015-Jun-21 09:29N 01°14' E 103°48'0 0.0
2015-Jun-21 05:20N 01°14' E 103°48'0 0.0
2015-Jun-21 02:23N 01°14' E 103°48'0 0.0
2015-Jun-21 01:17N 01°14' E 103°48'0 0.0
2015-Jun-20 23:32N 01°14' E 103°48'0 0.0
2015-Jun-20 22:32N 01°14' E 103°48'0 0.0
2015-Jun-20 20:29N 01°14' E 103°48'0 0.1
2015-Jun-20 19:23N 01°14' E 103°48'0 0.1
2015-Jun-20 16:14N 01°14' E 103°48'0 0.2
2015-Jun-20 15:20N 01°14' E 103°48'0 0.3
2015-Jun-20 14:33N 01°14' E 103°48'  
Track history (hours):
 
Tides and Currents Weather Stations Pressure Air Temp Water Temp Dewpoint Dewpoint Depression Visibility Wind Speed Wind Dir Waves Ship Positions

Alpine Light

Last reported at 2015-Jun-28 19:09 UTC. Time now 2015-Jul-07 00:15 UTC.
Position N 01°54' E 102°23'.
Warning: this ship's position is 8 days out of date.

Length 183 m; draft 8.6 m.

Type: Tanker. MMSI: 538003962.

Date/timePositionNaut miles runAvg speedWind from/ knotsBaromVisibWave heightAir tempDewpointWater temp
2015-Jun-28 19:09N 01°54' E 102°23'914.4
2015-Jun-28 18:33N 01°50' E 102°31'7614.0
2015-Jun-28 13:09N 01°12' E 103°36'1211.7
2015-Jun-28 12:09N 01°10' E 103°47'814.0
2015-Jun-28 11:33N 01°14' E 103°55'1211.9
2015-Jun-28 10:34N 01°18' E 104°06'7 0.2
2015-Jun-26 21:18N 01°23' E 104°01'5 6.3
2015-Jun-26 20:31N 01°20' E 104°05'  
2015-Jun-24 14:19N 01°15' E 104°02'811.0
2015-Jun-24 13:33N 01°13' E 103°54'6 5.6
2015-Jun-24 12:33N 01°13' E 103°49'1 0.9
2015-Jun-24 11:32N 01°14' E 103°48'0 0.0
2015-Jun-24 10:14N 01°14' E 103°48'0 0.0
2015-Jun-24 09:32N 01°14' E 103°48'0 0.0
2015-Jun-24 08:23N 01°14' E 103°48'0 0.0
2015-Jun-24 03:20N 01°14' E 103°48'0 0.0
2015-Jun-24 02:20N 01°14' E 103°48'0 0.0
2015-Jun-24 01:29N 01°14' E 103°48'0 0.0
2015-Jun-24 00:26N 01°14' E 103°48'0 0.0
2015-Jun-23 23:26N 01°14' E 103°48'0 0.0
2015-Jun-23 21:20N 01°14' E 103°48'2 2.7
2015-Jun-23 20:33N 01°15' E 103°47'2 0.0
2015-Jun-22 08:22N 01°14' E 103°45'3 3.5
2015-Jun-22 07:33N 01°14' E 103°48'1 0.5
2015-Jun-22 06:29N 01°14' E 103°48'0 0.0
2015-Jun-22 05:29N 01°14' E 103°48'0 0.0
2015-Jun-22 03:26N 01°14' E 103°48'0 0.0
2015-Jun-22 02:29N 01°14' E 103°48'0 0.0
2015-Jun-21 23:17N 01°14' E 103°48'0 0.0
2015-Jun-21 22:20N 01°14' E 103°48'0 0.0
2015-Jun-21 21:23N 01°14' E 103°48'0 0.1
2015-Jun-21 20:20N 01°14' E 103°48'0 0.2
2015-Jun-21 19:14N 01°14' E 103°48'0 0.1
2015-Jun-21 18:29N 01°14' E 103°48'0 0.0
2015-Jun-21 17:29N 01°14' E 103°48'0 0.0
2015-Jun-21 16:26N 01°14' E 103°48'0 0.0
2015-Jun-21 15:23N 01°14' E 103°48'0 0.1
2015-Jun-21 14:11N 01°14' E 103°48'0 0.0
2015-Jun-21 13:29N 01°14' E 103°48'0 0.1
2015-Jun-21 12:32N 01°14' E 103°48'0 0.0
2015-Jun-21 11:32N 01°14' E 103°48'0 0.0
2015-Jun-21 10:29N 01°14' E 103°48'0 0.1
2015-Jun-21 09:29N 01°14' E 103°48'0 0.0
2015-Jun-21 05:20N 01°14' E 103°48'0 0.0
2015-Jun-21 02:23N 01°14' E 103°48'0 0.0
2015-Jun-21 01:17N 01°14' E 103°48'0 0.0
2015-Jun-20 23:32N 01°14' E 103°48'0 0.0
2015-Jun-20 22:32N 01°14' E 103°48'0 0.0
2015-Jun-20 20:29N 01°14' E 103°48'0 0.1
2015-Jun-20 19:23N 01°14' E 103°48'0 0.1
2015-Jun-20 16:14N 01°14' E 103°48'0 0.2
2015-Jun-20 15:20N 01°14' E 103°48'0 0.3
2015-Jun-20 14:33N 01°14' E 103°48'  

Dump ship's entire track history